This is the latest recevied weather packets stored in our database for station/object OK4PZ-4. If no packets are shown the sender has not sent any weather packets the latest 10 day(s).
| Time | Temp. | Humidity | Pressure | Rain* | Wind** | Luminosity | Snow |
|---|---|---|---|---|---|---|---|
| 1777626872 | 21.67° C | 31% | 1025.6 hPa | 0 mm | - | - | - |
| 1777623146 | 20.56° C | 33% | 1025.8 hPa | 0 mm | - | - | - |
| 1777619187 | 15° C | 48% | 1026.2 hPa | 0 mm | - | - | - |
| 1777615227 | 5° C | 75% | 1026.2 hPa | 0 mm | - | - | - |
| 1777611269 | 2.22° C | 77% | 1026 hPa | 0 mm | - | - | - |
| 1777607542 | 1.67° C | 75% | 1025.5 hPa | 0 mm | - | - | - |
| 1777607309 | 1.67° C | 76% | 1025.6 hPa | 0 mm | - | - | - |
| 1777603583 | 1.67° C | 70% | 1025.7 hPa | 0 mm | - | - | - |
| 1777603350 | 1.67° C | 69% | 1025.7 hPa | 0 mm | - | - | - |
| 1777599624 | 2.78° C | 66% | 1025.5 hPa | 0 mm | - | - | - |
| 1777595664 | 3.89° C | 62% | 1025.5 hPa | 0 mm | - | - | - |
| 1777591705 | 4.44° C | 55% | 1025.6 hPa | 0 mm | - | - | - |
| 1777583787 | 7.22° C | 44% | 1025.2 hPa | 0 mm | - | - | - |
| 1777580061 | 8.89° C | 38% | 1025 hPa | 0 mm | - | - | - |
| 1777579828 | 9.44° C | 38% | 1025 hPa | 0 mm | - | - | - |
| 1777576102 | 11.11° C | 32% | 1024.7 hPa | 0 mm | - | - | - |
| 1777572142 | 16.67° C | 24% | 1024.1 hPa | 0 mm | - | - | - |
| 1777568223 | 21.67° C | 18% | 1023.7 hPa | 0 mm | - | - | - |
| 1777568183 | 21.67° C | 18% | 1023.7 hPa | 0 mm | - | - | - |
| 1777564224 | 23.33° C | 17% | 1023.8 hPa | 0 mm | - | - | - |
| 1777560498 | 24.44° C | 16% | 1024 hPa | 0 mm | - | - | - |
| 1777560265 | 24.44° C | 15% | 1024 hPa | 0 mm | - | - | - |
| 1777556539 | 25° C | 16% | 1024.4 hPa | 0 mm | - | - | - |
| 1777552579 | 24.44° C | 17% | 1024.9 hPa | 0 mm | - | - | - |
| 1777548620 | 23.89° C | 19% | 1025.7 hPa | 0 mm | - | - | - |
* Rain since midnight (hover to see other rain measurements)
** Current wind speed in m/s (hover to see current wind gust speed)